createdAt,value
2018-04-29T03:23:08.035Z,96.2
2018-04-29T03:23:29.070Z,95.5
2018-04-29T03:23:49.691Z,95.8
2018-04-29T03:24:10.300Z,95.5
2018-04-29T03:24:41.665Z,96.2
2018-04-29T04:06:18.063Z,97.2
2018-04-29T04:06:39.758Z,97.4
2018-04-29T04:07:01.300Z,97.1
2018-04-29T04:07:22.382Z,97.2
2018-04-29T04:07:42.771Z,97.1
2018-04-29T04:08:03.278Z,97.1
2018-04-29T04:08:23.789Z,97.2
2018-04-29T04:13:11.850Z,97.3
2018-04-29T04:13:32.652Z,97.4
2018-04-29T04:15:44.980Z,97.1
2018-04-29T04:16:07.305Z,96.9
2018-04-29T04:18:52.468Z,97.1
2018-04-29T04:19:52.056Z,97.6
2018-04-29T04:20:17.032Z,97.5
2018-04-29T04:20:37.538Z,97.5
2018-04-29T04:20:58.059Z,97.4
2018-04-29T04:21:20.732Z,97.4
2018-04-29T04:21:41.331Z,97.5
2018-04-29T04:22:01.848Z,96.8
2018-04-29T04:22:22.422Z,97.2
2018-04-29T04:27:08.652Z,97.3
2018-04-29T04:27:30.763Z,96.9
2018-04-29T04:27:53.313Z,97.2
2018-04-29T04:28:13.971Z,97.6
2018-04-29T04:28:34.478Z,97.5
2018-04-29T04:28:55.711Z,97.2
2018-04-29T04:29:17.830Z,98.1
2018-04-29T04:29:38.340Z,97.9
2018-04-29T04:30:00.643Z,97.6
2018-04-29T04:39:28.329Z,96.6
2018-04-29T04:39:51.127Z,97
2018-04-29T04:40:11.832Z,96.8
2018-04-29T04:40:32.838Z,97.3
2018-04-29T04:43:42.493Z,97.7
2018-04-29T04:44:03.948Z,97.5
2018-04-29T04:47:25.024Z,97.4
2018-04-29T04:48:20.282Z,97.6
2018-04-29T04:48:42.118Z,97.5
2018-04-29T04:49:34.988Z,97.5
2018-04-29T04:49:56.260Z,97.4
2018-04-29T04:50:17.433Z,97.7
2018-04-29T04:55:32.347Z,97.4
2018-04-29T04:55:55.301Z,97.4
2018-04-29T04:56:15.849Z,97.8
2018-04-29T04:56:36.429Z,97.5
2018-04-29T04:56:57.005Z,98
2018-04-29T04:58:30.701Z,97.8
2018-04-29T04:59:31.888Z,97.9
2018-04-29T04:59:54.460Z,98.1
2018-04-29T05:00:53.898Z,97.7
2018-04-29T05:01:15.070Z,97.7
2018-04-29T05:02:19.341Z,98.4
2018-04-29T05:03:21.424Z,98.5
2018-04-29T05:03:42.300Z,98.5
2018-04-29T05:04:02.823Z,98.5
2018-04-29T05:04:23.340Z,98.9
2018-04-29T05:05:21.649Z,99.3
2018-04-29T05:06:21.448Z,98.9
2018-04-29T05:07:28.986Z,98.9
2018-04-29T05:09:52.895Z,99.4
2018-04-29T05:10:14.093Z,99.1
2018-04-29T05:11:09.236Z,99.7
2018-04-29T05:11:56.995Z,99.3
2018-04-29T05:12:18.740Z,99.2
2018-04-29T05:12:39.985Z,99.1
2018-04-29T05:13:00.733Z,98.8
2018-04-29T05:13:21.350Z,99
2018-04-29T05:13:42.117Z,98.6
2018-04-29T05:14:02.657Z,98.8
2018-04-29T05:15:01.487Z,98.3
2018-04-29T05:15:24.288Z,98.7
2018-04-29T05:15:44.974Z,98.2
2018-04-29T05:16:05.508Z,98.7
2018-04-29T05:16:26.075Z,98.5
2018-04-29T05:16:46.552Z,98.3
2018-04-29T05:17:07.106Z,98.7
2018-04-29T05:17:27.766Z,98.4
2018-04-29T05:17:48.458Z,98.3
2018-04-29T05:18:08.932Z,98.5
2018-04-29T05:18:29.433Z,98.4
2018-04-29T05:18:49.933Z,97.8
2018-04-29T05:19:11.291Z,98.3
2018-04-29T05:19:31.754Z,97.4
2018-04-29T05:19:52.369Z,97.5
2018-04-29T05:20:13.108Z,97.4
2018-04-29T05:20:33.656Z,97.3
2018-04-29T05:20:54.151Z,97.6
2018-04-29T05:21:16.311Z,97.6
2018-04-29T05:21:37.204Z,97
2018-04-29T05:21:58.812Z,96.4
2018-04-29T05:22:20.197Z,96.8
2018-04-29T05:22:40.531Z,96.7
2018-04-29T05:23:01.064Z,96.8
2018-04-29T05:23:21.675Z,96.6
2018-04-29T05:23:42.254Z,96.7
2018-04-29T05:24:02.757Z,96.7
2018-04-29T05:24:23.265Z,96.7
2018-04-29T05:24:43.948Z,96.7
2018-04-29T05:25:05.367Z,96.2
2018-04-29T05:25:25.841Z,96.5
2018-04-29T05:25:46.313Z,96.1
2018-04-29T05:26:06.805Z,96.2
2018-04-29T05:26:27.257Z,96.6
2018-04-29T05:26:47.974Z,96.2
2018-04-29T05:27:09.291Z,96.7
2018-04-29T05:27:29.838Z,96.9
2018-04-29T05:27:51.343Z,96.7
2018-04-29T05:28:11.983Z,96.5
2018-04-29T05:28:32.664Z,96.7
2018-04-29T05:28:53.302Z,96.2
2018-04-29T05:29:13.623Z,96.3
2018-04-29T05:29:34.134Z,96.3
2018-04-29T05:29:54.504Z,96.5
2018-04-29T05:30:14.934Z,96.1
2018-04-29T05:30:36.151Z,96.1
2018-04-29T05:30:56.639Z,96.5
2018-04-29T05:31:17.163Z,96.6
2018-04-29T05:31:37.652Z,97.5
2018-04-29T05:31:58.143Z,97.5
2018-04-29T05:32:18.628Z,97.6
2018-04-29T05:32:39.046Z,97.6
2018-04-29T05:33:02.260Z,97.4
2018-04-29T05:33:22.772Z,97.2
2018-04-29T05:33:43.253Z,97.2
2018-04-29T05:34:03.766Z,97.2
2018-04-29T05:34:25.698Z,96.9
2018-04-29T05:34:46.829Z,97.2
2018-04-29T05:35:10.228Z,97.2
2018-04-29T05:35:30.943Z,96.5
2018-04-29T05:35:51.328Z,96.5
2018-04-29T05:36:11.695Z,96.5
2018-04-29T05:36:32.219Z,96.6
2018-04-29T05:36:52.706Z,97.1
2018-04-29T05:37:13.123Z,97.2
2018-04-29T05:37:33.684Z,97.7
2018-04-29T05:37:57.180Z,97.6
2018-04-29T05:38:17.704Z,97.6
2018-04-29T05:38:38.142Z,97.6
2018-04-29T05:38:58.632Z,97
2018-04-29T05:39:19.039Z,96.9
2018-04-29T05:39:39.455Z,96.5
2018-04-29T05:40:01.705Z,96.3
2018-04-29T05:40:22.759Z,96.2
2018-04-29T05:40:43.199Z,96.5
2018-04-29T05:41:03.848Z,96.2
2018-04-29T05:41:24.345Z,96.3
2018-04-29T05:41:45.736Z,96.4
2018-04-29T05:42:06.383Z,96.2
2018-04-29T05:42:27.827Z,96.3
2018-04-29T05:42:48.259Z,96.8
2018-04-29T05:43:08.692Z,96.1
2018-04-29T05:43:29.132Z,96.3
2018-04-29T05:43:49.635Z,96.6
2018-04-29T05:44:10.245Z,96.9
2018-04-29T05:44:31.223Z,96.9
2018-04-29T05:44:51.861Z,96.7
2018-04-29T05:45:12.403Z,96.4
2018-04-29T05:45:32.929Z,96.7
2018-04-29T05:45:53.573Z,96.7
2018-04-29T05:46:16.350Z,96.4
2018-04-29T05:46:36.941Z,95.9
2018-04-29T05:46:57.409Z,96.5
2018-04-29T05:47:17.863Z,96.6
2018-04-29T05:47:38.585Z,96.3
2018-04-29T05:47:59.274Z,96.1
2018-04-29T05:48:20.116Z,97
2018-04-29T05:48:40.638Z,96.1
2018-04-29T05:49:01.291Z,96.7
2018-04-29T05:49:21.746Z,96.7
2018-04-29T05:49:42.194Z,96.2
2018-04-29T05:50:03.207Z,96.2
2018-04-29T05:50:23.799Z,96.4
2018-04-29T05:50:45.340Z,96.6
2018-04-29T05:51:06.781Z,96.5
2018-04-29T05:51:27.323Z,96.2
2018-04-29T05:51:47.962Z,96.5
2018-04-29T05:52:08.504Z,95.9
2018-04-29T05:52:28.825Z,96.6
2018-04-29T05:52:49.454Z,95.9
2018-04-29T05:53:10.064Z,95.8
2018-04-29T05:53:32.273Z,95.9
2018-04-29T05:53:52.932Z,96.2
2018-04-29T05:54:13.487Z,96.5
2018-04-29T05:54:34.022Z,95.8
2018-04-29T05:54:54.606Z,96.6
2018-04-29T05:55:15.042Z,95.9
2018-04-29T05:55:35.496Z,96.7
2018-04-29T05:55:56.013Z,97
2018-04-29T05:56:20.798Z,96.6
2018-04-29T05:56:41.330Z,96.7
2018-04-29T05:57:01.780Z,96.2
2018-04-29T05:57:23.370Z,96
2018-04-29T05:57:46.835Z,96.6
2018-04-29T05:58:07.402Z,96.5
2018-04-29T05:58:28.025Z,96.4
2018-04-29T05:58:48.654Z,97
2018-04-29T05:59:09.848Z,96.3
2018-04-29T05:59:30.312Z,96.4
2018-04-29T05:59:51.805Z,96
2018-04-29T06:00:12.383Z,96.1
2018-04-29T06:00:33.218Z,95.4
2018-04-29T06:00:53.699Z,95.6
2018-04-29T06:01:15.220Z,95.6
2018-04-29T06:01:35.747Z,95.3
2018-04-29T06:01:56.285Z,95.6
2018-04-29T06:02:18.767Z,95.9
2018-04-29T06:02:39.275Z,95.8
2018-04-29T06:03:00.767Z,95.9
2018-04-29T06:03:26.324Z,95.3
2018-04-29T06:03:46.968Z,95.4
2018-04-29T06:04:07.424Z,95.3
2018-04-29T06:04:27.806Z,95.2
2018-04-29T06:04:49.276Z,95.2
2018-04-29T06:05:09.831Z,94.6
2018-04-29T06:05:30.369Z,95.3
2018-04-29T06:05:50.976Z,95.7
2018-04-29T06:06:11.460Z,96
2018-04-29T06:06:32.085Z,95.7
2018-04-29T06:06:52.798Z,95.7
2018-04-29T06:07:13.374Z,95.6
2018-04-29T06:07:34.116Z,95.6
2018-04-29T06:07:54.724Z,95.7
2018-04-29T06:08:15.404Z,95.6
2018-04-29T06:08:36.209Z,96.1
2018-04-29T06:08:56.874Z,96.6
2018-04-29T06:09:18.340Z,96.8
2018-04-29T06:09:39.770Z,96.5
2018-04-29T06:10:00.282Z,95.9
2018-04-29T06:10:21.808Z,95.8
2018-04-29T06:10:42.441Z,95.3
2018-04-29T06:11:03.055Z,94.9
2018-04-29T06:11:23.698Z,95
2018-04-29T06:11:46.244Z,94.9
2018-04-29T06:12:06.858Z,95.1
2018-04-29T06:12:28.305Z,94.7
2018-04-29T06:12:49.157Z,95
2018-04-29T06:13:09.718Z,94.6
2018-04-29T06:13:30.400Z,95
2018-04-29T06:13:51.102Z,94.6
2018-04-29T06:14:11.890Z,94.3
2018-04-29T06:14:32.453Z,93.9
2018-04-29T06:14:53.083Z,94.5
2018-04-29T06:15:13.881Z,94.3
2018-04-29T06:15:38.836Z,94.5
2018-04-29T06:16:00.326Z,95.1
2018-04-29T06:16:21.898Z,94.6
2018-04-29T06:16:42.440Z,94
2018-04-29T06:17:03.040Z,94.2
2018-04-29T06:17:23.815Z,94.2
2018-04-29T06:17:44.416Z,94.2
2018-04-29T06:18:05.093Z,94.2
2018-04-29T06:18:26.736Z,94.6
2018-04-29T06:18:47.998Z,93.9
2018-04-29T06:19:09.408Z,94.3
2018-04-29T06:19:30.791Z,94.2
2018-04-29T06:19:51.363Z,94.1
2018-04-29T06:20:12.915Z,94.8
2018-04-29T06:20:33.490Z,94.6
2018-04-29T06:20:53.976Z,95
2018-04-29T06:21:14.524Z,95.2
2018-04-29T06:21:35.875Z,95.3
2018-04-29T06:21:56.580Z,95.6
2018-04-29T06:22:17.124Z,95.8
2018-04-29T06:22:37.642Z,95.3
2018-04-29T06:24:36.105Z,93.4
2018-04-29T06:24:56.939Z,93.5
2018-04-29T06:25:18.402Z,93.2
2018-04-29T06:25:39.119Z,93.5
2018-04-29T06:25:59.813Z,93.1
2018-04-29T06:26:20.758Z,93.6
2018-04-29T06:26:41.201Z,93.4
2018-04-29T06:27:01.916Z,93.9
2018-04-29T06:27:22.519Z,94.6
2018-04-29T06:27:43.009Z,95.2
2018-04-29T06:28:03.609Z,94.8
2018-04-29T06:28:24.140Z,95
2018-04-29T06:28:45.223Z,94.6
2018-04-29T06:29:05.846Z,94
2018-04-29T06:29:26.424Z,93.1
2018-04-29T06:29:46.944Z,93.2
2018-04-29T06:30:07.449Z,93.2
2018-04-29T06:30:28.063Z,93.7
2018-04-29T06:30:52.288Z,93.7
2018-04-29T06:31:13.797Z,94
2018-04-29T06:31:34.464Z,94.2
2018-04-29T06:31:55.132Z,94
2018-04-29T06:32:16.782Z,94
2018-04-29T06:32:39.389Z,93.9
2018-04-29T06:33:00.950Z,94.1
2018-04-29T06:33:21.742Z,93.9
2018-04-29T06:33:42.301Z,93.5
2018-04-29T06:34:02.813Z,93.1
2018-04-29T06:34:23.543Z,93.6
2018-04-29T06:34:44.160Z,93.4
2018-04-29T06:35:04.730Z,93.8
2018-04-29T06:35:25.287Z,94.2
2018-04-29T06:35:46.846Z,94.1
2018-04-29T06:36:07.430Z,93.5
2018-04-29T06:36:28.180Z,93.5
2018-04-29T06:36:48.623Z,93.5
2018-04-29T06:37:09.261Z,93.3
2018-04-29T06:37:29.897Z,93.7
2018-04-29T06:37:51.101Z,94.6
2018-04-29T06:38:11.638Z,94.6
2018-04-29T06:38:32.093Z,94.2
2018-04-29T06:38:52.970Z,93.9
2018-04-29T06:39:13.642Z,93.5
2018-04-29T06:39:34.268Z,92.4
2018-04-29T06:39:54.839Z,92.6
2018-04-29T06:40:15.384Z,92.8
2018-04-29T06:40:36.006Z,92.8
2018-04-29T06:40:57.441Z,92.4
2018-04-29T06:41:18.047Z,92.5
2018-04-29T06:41:38.679Z,92.4
2018-04-29T06:41:59.156Z,92.3
2018-04-29T06:42:19.673Z,92.3
2018-04-29T06:42:40.065Z,92.1
2018-04-29T06:43:00.752Z,91.2
2018-04-29T06:43:21.220Z,91.8
2018-04-29T06:43:41.699Z,91.6
2018-04-29T06:44:02.090Z,91
2018-04-29T06:44:22.652Z,90.7
2018-04-29T06:44:43.216Z,90.6
2018-04-29T06:45:03.689Z,91.7
2018-04-29T06:45:24.133Z,90
2018-04-29T06:45:45.376Z,89.5
2018-04-29T06:46:05.980Z,88.9
2018-04-29T06:46:26.531Z,89.8
2018-04-29T06:46:47.822Z,89.8
2018-04-29T06:47:09.217Z,90.1
2018-04-29T06:47:29.810Z,89.8
2018-04-29T06:47:50.495Z,90.8
2018-04-29T06:48:10.958Z,91.2
2018-04-29T06:48:31.331Z,90.7
2018-04-29T06:48:51.855Z,90.7
2018-04-29T06:49:12.346Z,90.3
2018-04-29T06:49:32.844Z,90.7
2018-04-29T06:49:53.696Z,90.9
2018-04-29T06:50:14.122Z,90.6
2018-04-29T06:50:34.528Z,90.6
2018-04-29T06:50:59.795Z,90.8
2018-04-29T06:51:20.772Z,90.6
2018-04-29T06:51:41.099Z,90.5
2018-04-29T06:52:01.563Z,90.4
2018-04-29T06:52:23.605Z,89.6
2018-04-29T06:52:44.047Z,90.2
2018-04-29T06:53:04.707Z,89.7
2018-04-29T06:53:25.173Z,89.6
2018-04-29T06:53:45.939Z,89.7
2018-04-29T06:54:06.332Z,89.8
2018-04-29T06:54:27.024Z,89.8
2018-04-29T06:54:47.696Z,90.1
2018-04-29T06:55:08.468Z,90
2018-04-29T06:55:29.121Z,89.9
2018-04-29T06:55:49.690Z,89.4
2018-04-29T06:56:10.472Z,90.3
2018-04-29T06:56:31.038Z,90
2018-04-29T06:56:51.889Z,91.1
2018-04-29T06:57:12.672Z,91.1
2018-04-29T06:57:33.260Z,90.1
2018-04-29T06:57:53.994Z,88.3
2018-04-29T06:58:14.780Z,88.3
2018-04-29T06:58:35.434Z,88.4
2018-04-29T06:58:56.234Z,89
2018-04-29T06:59:16.658Z,90
2018-04-29T06:59:37.074Z,88.8
2018-04-29T06:59:57.655Z,88.1
2018-04-29T07:00:20.890Z,88.3
2018-04-29T07:00:41.276Z,87.4
2018-04-29T07:01:01.639Z,86.8
2018-04-29T07:01:22.775Z,87.2
2018-04-29T07:01:43.358Z,86.7
2018-04-29T07:02:04.917Z,86.5
2018-04-29T07:02:25.234Z,87.2
2018-04-29T07:02:45.708Z,87.6
2018-04-29T07:03:06.066Z,87.6
2018-04-29T07:03:26.334Z,87.5
2018-04-29T07:03:46.749Z,87.5
2018-04-29T07:04:07.215Z,87.2
2018-04-29T07:04:27.895Z,87.6
2018-04-29T07:04:48.358Z,87.1
2018-04-29T07:05:09.188Z,87.1
2018-04-29T07:05:29.637Z,87.6
2018-04-29T07:05:50.014Z,87.7
2018-04-29T07:06:11.443Z,87.4
2018-04-29T07:06:31.872Z,87.6
2018-04-29T07:06:52.248Z,87.1
2018-04-29T07:07:12.750Z,86.7
2018-04-29T07:07:33.215Z,87.2
2018-04-29T07:07:55.049Z,87.6
2018-04-29T07:08:15.918Z,88.3
2018-04-29T07:08:36.571Z,88.8
2018-04-29T07:08:57.093Z,89.3
2018-04-29T07:09:17.946Z,88.3
2018-04-29T07:09:38.561Z,87.9
2018-04-29T07:09:59.183Z,88
2018-04-29T07:10:20.100Z,87.5
2018-04-29T07:10:40.903Z,88
2018-04-29T07:11:01.810Z,87.7
2018-04-29T07:11:22.453Z,87.3
2018-04-29T07:11:43.113Z,87.1
2018-04-29T07:12:03.829Z,86
2018-04-29T07:12:24.651Z,86.1
2018-04-29T07:12:45.380Z,86.5
2018-04-29T07:13:06.835Z,87.1
2018-04-29T07:13:27.531Z,86.8
2018-04-29T07:13:48.460Z,87
2018-04-29T07:14:09.373Z,86.5
2018-04-29T07:14:30.331Z,86.8
2018-04-29T07:14:51.234Z,86.8
2018-04-29T07:15:11.725Z,86.7
2018-04-29T07:15:32.598Z,86.2
2018-04-29T07:15:53.275Z,86.4
2018-04-29T07:16:14.296Z,86.2
2018-04-29T07:16:34.972Z,86.1
2018-04-29T07:16:55.654Z,85.1
2018-04-29T07:17:16.567Z,83.8
2018-04-29T07:17:37.114Z,84.1
2018-04-29T07:17:57.957Z,85
2018-04-29T07:18:18.727Z,85.3
2018-04-29T07:18:39.477Z,85.6
2018-04-29T07:19:00.341Z,85.7
2018-04-29T07:19:21.290Z,86.2
2018-04-29T07:19:42.037Z,87.1
2018-04-29T07:20:02.817Z,86.9
2018-04-29T07:20:23.303Z,85.8
2018-04-29T07:20:43.698Z,85.1
2018-04-29T07:21:04.279Z,85.3
2018-04-29T07:21:25.012Z,85.3
2018-04-29T07:21:45.529Z,85.2
2018-04-29T07:22:07.838Z,85.4
2018-04-29T07:22:28.721Z,84.8
2018-04-29T07:22:49.403Z,84.6
2018-04-29T07:23:09.893Z,85.3
2018-04-29T07:23:30.491Z,85.5
2018-04-29T07:23:51.258Z,84.4
2018-04-29T07:24:11.871Z,83.8
2018-04-29T07:24:32.503Z,84
2018-04-29T07:24:53.117Z,83.5
2018-04-29T07:25:13.632Z,84
2018-04-29T07:25:34.338Z,83.9
2018-04-29T07:25:54.793Z,83.7
2018-04-29T07:26:16.254Z,83.9
2018-04-29T07:26:36.686Z,83.8
2018-04-29T07:26:57.259Z,83
2018-04-29T07:27:17.988Z,83.4
2018-04-29T07:27:38.572Z,84
2018-04-29T07:27:59.229Z,84.2
2018-04-29T07:28:19.941Z,85
2018-04-29T07:28:40.641Z,85.3
2018-04-29T07:29:01.345Z,84.7
2018-04-29T07:29:21.803Z,84.7
2018-04-29T07:29:42.306Z,84.6
2018-04-29T07:30:02.821Z,85
2018-04-29T07:30:23.501Z,85.1
2018-04-29T07:30:44.280Z,85.1
2018-04-29T07:31:05.784Z,85
2018-04-29T07:31:26.403Z,84.1
2018-04-29T07:31:47.196Z,83.9
2018-04-29T07:32:07.872Z,83.8
2018-04-29T07:32:28.404Z,83.8
2018-04-29T07:32:49.199Z,83.7
2018-04-29T07:33:09.536Z,85.1
2018-04-29T07:33:29.891Z,84.3
2018-04-29T07:33:50.186Z,83.4
2018-04-29T07:34:11.630Z,83.5
2018-04-29T07:34:32.126Z,83.1
2018-04-29T07:34:52.716Z,82.9
2018-04-29T07:35:13.577Z,83.3
2018-04-29T07:35:34.160Z,83.1
2018-04-29T07:35:54.925Z,83
2018-04-29T07:36:15.446Z,83.5
2018-04-29T07:36:35.844Z,83.1
2018-04-29T07:36:56.308Z,83.2
2018-04-29T07:37:16.827Z,82.4
2018-04-29T07:37:37.355Z,82.2
2018-04-29T07:37:58.047Z,82.4
2018-04-29T07:38:20.297Z,82.9
2018-04-29T07:38:41.315Z,83.3
2018-04-29T07:39:02.150Z,83.3
2018-04-29T07:39:22.888Z,83.5
2018-04-29T07:39:43.532Z,83
2018-04-29T07:40:04.641Z,83.8
2018-04-29T07:40:25.701Z,83.5
2018-04-29T07:40:46.812Z,83.8
2018-04-29T07:41:07.505Z,83.9
2018-04-29T07:41:27.911Z,83.8
2018-04-29T07:41:48.401Z,84.1
2018-04-29T07:42:09.092Z,84.2
2018-04-29T07:42:29.645Z,83.8
2018-04-29T07:42:50.135Z,83.6
2018-04-29T07:43:10.846Z,82.9
2018-04-29T07:43:31.368Z,82.2
2018-04-29T07:43:53.381Z,81.5
2018-04-29T07:44:13.761Z,81.7
2018-04-29T07:44:34.231Z,81.4
2018-04-29T07:44:54.596Z,81.3
2018-04-29T07:45:19.036Z,82.6
2018-04-29T07:45:39.694Z,82.1
2018-04-29T07:46:00.293Z,82
2018-04-29T07:46:21.026Z,82.1
2018-04-29T07:46:41.759Z,82
2018-04-29T07:47:02.413Z,81.8
2018-04-29T07:47:23.172Z,81.8
2018-04-29T07:47:43.790Z,82.1
2018-04-29T07:48:04.586Z,81.6
2018-04-29T07:48:25.291Z,81.7
2018-04-29T07:48:45.991Z,82
2018-04-29T07:49:06.802Z,82.1
2018-04-29T07:49:27.422Z,82.3
2018-04-29T07:49:47.880Z,82.3
2018-04-29T07:50:08.461Z,82.5
2018-04-29T07:50:29.330Z,83.1
2018-04-29T07:50:49.962Z,84
2018-04-29T07:51:10.852Z,83.6
2018-04-29T07:51:31.587Z,82.2
2018-04-29T07:51:52.213Z,81.6
2018-04-29T07:52:13.112Z,81.2
2018-04-29T07:52:34.506Z,81.7
2018-04-29T07:52:55.460Z,81.2
2018-04-29T07:53:16.151Z,81.5
2018-04-29T07:53:36.737Z,80.9
2018-04-29T07:53:57.489Z,81.3
2018-04-29T07:54:18.439Z,80.9
2018-04-29T07:54:39.509Z,81.1
2018-04-29T07:55:00.199Z,80.9
2018-04-29T07:55:20.995Z,81.1
2018-04-29T07:55:41.583Z,80.6
2018-04-29T07:56:02.394Z,81
2018-04-29T07:56:23.152Z,81.1
2018-04-29T07:56:44.010Z,80.9
2018-04-29T07:57:04.596Z,81
2018-04-29T07:57:25.324Z,81.4
2018-04-29T07:57:46.090Z,81
2018-04-29T07:58:06.932Z,81.4
2018-04-29T07:58:27.584Z,81.1
2018-04-29T07:58:48.189Z,81.1
2018-04-29T07:59:08.798Z,81.4
2018-04-29T07:59:29.399Z,81.2
2018-04-29T07:59:49.899Z,80.9
2018-04-29T08:00:10.629Z,80.3
2018-04-29T08:00:31.418Z,80.4
2018-04-29T08:00:52.411Z,80.5
2018-04-29T08:01:13.033Z,81
2018-04-29T08:01:33.823Z,81.2
2018-04-29T08:01:54.707Z,81.9
2018-04-29T08:02:16.322Z,81.3
2018-04-29T08:02:37.296Z,81.2
2018-04-29T08:02:58.047Z,81.4
2018-04-29T08:03:18.801Z,81.2
2018-04-29T08:03:39.680Z,81.2
2018-04-29T08:04:00.253Z,80.6
2018-04-29T08:04:20.977Z,80.5
2018-04-29T08:04:42.995Z,80.5
2018-04-29T08:05:03.858Z,80.3
2018-04-29T08:05:24.694Z,80.4
2018-04-29T08:05:46.051Z,80.3
2018-04-29T08:06:06.876Z,80.4
2018-04-29T08:06:27.787Z,80.2
2018-04-29T08:06:49.359Z,80.2
2018-04-29T08:07:12.917Z,80.3
2018-04-29T08:07:33.796Z,78.8
2018-04-29T08:07:54.533Z,78.9
2018-04-29T08:08:15.534Z,79.6
2018-04-29T08:08:36.471Z,80.1
2018-04-29T08:08:57.441Z,80.5
2018-04-29T08:09:18.069Z,80.5
2018-04-29T08:09:38.878Z,79.9
2018-04-29T08:09:59.879Z,80.2
2018-04-29T08:10:20.661Z,80.4
2018-04-29T08:10:41.737Z,80.4
2018-04-29T08:11:02.660Z,79.7
2018-04-29T08:11:23.705Z,79.6
2018-04-29T08:11:44.661Z,80
2018-04-29T08:12:05.506Z,80.5
2018-04-29T08:12:26.456Z,80.2
2018-04-29T08:12:47.414Z,80.8
2018-04-29T08:13:08.073Z,80.2
2018-04-29T08:13:28.906Z,80.5
2018-04-29T08:13:50.750Z,80.3
2018-04-29T08:14:11.688Z,80.2
2018-04-29T08:14:34.383Z,80.1
2018-04-29T08:14:55.122Z,80
2018-04-29T08:15:16.192Z,81.2
2018-04-29T08:15:37.270Z,82.8
2018-04-29T08:16:00.688Z,83
2018-04-29T08:16:22.433Z,82.5
2018-04-29T08:16:43.818Z,81.5
2018-04-29T08:17:04.993Z,80.4
2018-04-29T08:17:27.567Z,79.7
2018-04-29T08:17:50.725Z,79.7
2018-04-29T08:18:11.493Z,80.5
2018-04-29T08:18:32.827Z,80
2018-04-29T08:18:54.304Z,80.6
2018-04-29T08:19:15.693Z,80.7
2018-04-29T08:19:38.602Z,80.2
2018-04-29T08:20:00.907Z,81
2018-04-29T08:20:22.772Z,81.4
2018-04-29T08:20:43.680Z,82.5
2018-04-29T08:21:04.891Z,83.9
2018-04-29T08:21:25.727Z,83.1
2018-04-29T08:21:46.646Z,82.8
2018-04-29T08:22:07.454Z,82.5
2018-04-29T08:22:28.127Z,81.2
2018-04-29T08:22:52.559Z,81.5
2018-04-29T08:23:14.098Z,80.7
2018-04-29T08:23:35.425Z,80.3
2018-04-29T08:23:56.487Z,79.9
2018-04-29T08:24:17.309Z,79.9
2018-04-29T08:24:38.411Z,79.9
2018-04-29T08:24:59.158Z,81.1
2018-04-29T08:25:20.156Z,81.1
2018-04-29T08:25:46.091Z,80.9
2018-04-29T08:26:07.111Z,81.4
2018-04-29T08:26:29.141Z,81
2018-04-29T08:26:50.446Z,80.2
2018-04-29T08:27:12.918Z,80.1
2018-04-29T08:27:36.754Z,80.4
2018-04-29T08:27:58.195Z,80.3
2018-04-29T08:28:18.851Z,80.9
2018-04-29T08:28:39.968Z,80.8
2018-04-29T08:29:02.829Z,81.6
2018-04-29T08:29:23.968Z,82.5
2018-04-29T08:29:44.604Z,81.1
2018-04-29T08:30:05.605Z,80.8
2018-04-29T08:30:26.669Z,80.9
2018-04-29T08:30:47.554Z,80.3
2018-04-29T08:31:08.497Z,80.4
2018-04-29T08:31:30.166Z,79.2
2018-04-29T08:31:50.863Z,77.9
2018-04-29T08:32:12.547Z,78.1
2018-04-29T08:32:33.539Z,78.7
2018-04-29T08:32:54.412Z,78.5
2018-04-29T08:33:16.116Z,79.8
2018-04-29T08:33:37.168Z,79.5
2018-04-29T08:33:58.341Z,77.8
2018-04-29T08:34:19.443Z,78.7
2018-04-29T08:34:40.557Z,79.4
2018-04-29T08:35:01.876Z,79.5
2018-04-29T08:35:23.202Z,77.5
2018-04-29T08:35:44.050Z,77.3
2018-04-29T08:36:04.866Z,77.6
2018-04-29T08:36:26.326Z,77.6
2018-04-29T08:36:47.109Z,77.6
2018-04-29T08:37:08.083Z,76.6
2018-04-29T08:37:28.918Z,76.8
2018-04-29T08:37:49.741Z,77
2018-04-29T08:38:11.463Z,77.7
2018-04-29T08:38:32.463Z,77.5
2018-04-29T08:38:53.769Z,78.5
2018-04-29T08:39:16.301Z,78.8
2018-04-29T08:39:37.419Z,78.6
2018-04-29T08:39:58.256Z,77.6
2018-04-29T08:40:19.641Z,76.7
2018-04-29T08:40:41.732Z,76.4
2018-04-29T08:41:03.016Z,77.2
2018-04-29T08:41:24.221Z,76.9
2018-04-29T08:41:45.352Z,76.9
2018-04-29T08:42:06.554Z,77.1
2018-04-29T08:42:32.646Z,77.4
2018-04-29T08:42:53.911Z,76.7
2018-04-29T08:43:14.787Z,76.6
2018-04-29T08:43:36.049Z,77.2
2018-04-29T08:43:59.436Z,77.1
2018-04-29T08:44:20.278Z,77.3
2018-04-29T08:44:41.350Z,77.8
2018-04-29T08:45:02.439Z,77.9
2018-04-29T08:45:30.005Z,77.3
2018-04-29T08:45:51.795Z,78.2
2018-04-29T08:46:13.626Z,77.4
2018-04-29T08:46:39.656Z,77.7
2018-04-29T08:47:00.858Z,77.6
2018-04-29T08:47:22.896Z,78.5
2018-04-29T08:47:48.064Z,77.5
2018-04-29T08:48:10.968Z,77.5
2018-04-29T08:48:32.028Z,77.5
2018-04-29T08:48:53.539Z,77.5
2018-04-29T08:49:15.050Z,77.3
2018-04-29T08:49:36.377Z,76.5
2018-04-29T08:49:57.604Z,76.4
2018-04-29T08:50:18.834Z,76.6
2018-04-29T08:50:39.750Z,76.9
2018-04-29T08:51:01.024Z,77.1
2018-04-29T08:51:22.058Z,77.4
2018-04-29T08:51:43.153Z,77.8
2018-04-29T08:52:03.901Z,76.3
2018-04-29T08:52:24.733Z,75.7
2018-04-29T08:52:45.812Z,76
2018-04-29T08:53:06.945Z,76.3
2018-04-29T08:53:27.875Z,77.2
2018-04-29T08:53:50.141Z,77.6
2018-04-29T08:54:12.688Z,77.8
2018-04-29T08:54:35.859Z,78.4
2018-04-29T08:54:57.104Z,77.4
2018-04-29T08:55:18.414Z,76.9
2018-04-29T08:55:39.706Z,76.3
2018-04-29T08:56:01.190Z,76.4
2018-04-29T08:56:22.179Z,76.5
2018-04-29T08:56:43.083Z,76.7
2018-04-29T08:57:04.089Z,77
2018-04-29T08:57:24.857Z,77.2
2018-04-29T08:57:46.342Z,77
2018-04-29T08:58:07.299Z,77.5
2018-04-29T08:58:28.971Z,77.1
2018-04-29T08:58:50.370Z,77
2018-04-29T08:59:11.465Z,77.5
2018-04-29T08:59:32.923Z,77.3
2018-04-29T08:59:53.893Z,77.4
2018-04-29T09:00:15.048Z,77.7
2018-04-29T09:00:36.545Z,78
2018-04-29T09:00:57.343Z,76.1
2018-04-29T09:01:19.120Z,76.2
2018-04-29T09:01:39.961Z,76.3
2018-04-29T09:02:01.649Z,76
2018-04-29T09:02:25.267Z,76.7
2018-04-29T09:02:46.382Z,77.1
2018-04-29T09:03:07.275Z,77.6
2018-04-29T09:03:29.460Z,77.9
2018-04-29T09:03:53.775Z,77.8
2018-04-29T09:04:15.020Z,77.6
2018-04-29T09:04:38.187Z,77.6
2018-04-29T09:05:02.458Z,77.5
2018-04-29T09:05:25.980Z,77.4
2018-04-29T09:05:48.018Z,77.6
2018-04-29T09:06:10.876Z,77.8
2018-04-29T09:06:32.699Z,77.5
2018-04-29T09:06:54.677Z,77.5
2018-04-29T09:07:17.684Z,77.9
2018-04-29T09:07:41.649Z,77.8
2018-04-29T09:08:03.944Z,77.8
2018-04-29T09:08:24.932Z,78.5
2018-04-29T09:08:47.959Z,78.6
2018-04-29T09:09:08.815Z,78.1
2018-04-29T09:09:29.250Z,78
2018-04-29T09:09:50.590Z,77.6
2018-04-29T09:10:11.354Z,76.8
2018-04-29T09:10:31.964Z,75.9
2018-04-29T09:10:52.508Z,74.5
2018-04-29T09:11:13.171Z,74.6
2018-04-29T09:11:33.845Z,75.1
2018-04-29T09:11:54.836Z,76
2018-04-29T09:12:15.653Z,76.2
2018-04-29T09:12:37.111Z,76.5
2018-04-29T09:12:57.675Z,76.8
2018-04-29T09:13:18.930Z,77.8
2018-04-29T09:13:39.658Z,77.6
2018-04-29T09:14:01.334Z,76.9
2018-04-29T09:14:22.335Z,77.2
2018-04-29T09:14:43.179Z,76.9
2018-04-29T09:15:04.125Z,76.6
2018-04-29T09:15:25.710Z,75.9
2018-04-29T09:15:46.717Z,76.1
2018-04-29T09:16:07.751Z,75.9
2018-04-29T09:16:29.089Z,75.4
2018-04-29T09:16:50.056Z,73.5
2018-04-29T09:17:10.829Z,73.8
2018-04-29T09:17:31.697Z,73.7
2018-04-29T09:17:52.367Z,73.4
2018-04-29T09:18:15.002Z,73.4
2018-04-29T09:18:36.082Z,73.1
2018-04-29T09:18:56.948Z,73.6
2018-04-29T09:19:18.047Z,72.9
2018-04-29T09:19:39.099Z,73.6
2018-04-29T09:19:59.859Z,73.4
2018-04-29T09:20:20.433Z,73.8
2018-04-29T09:20:41.225Z,73.2
2018-04-29T09:21:02.258Z,72.9
2018-04-29T09:21:23.699Z,72.7
2018-04-29T09:21:44.996Z,72.7
2018-04-29T09:22:06.801Z,73.1
2018-04-29T09:22:27.718Z,73.3
2018-04-29T09:22:48.923Z,73.4
2018-04-29T09:23:09.767Z,73.2
2018-04-29T09:23:31.222Z,73.5
2018-04-29T09:23:52.269Z,71.8
2018-04-29T09:24:13.347Z,70.7
2018-04-29T09:24:34.222Z,70.4
2018-04-29T09:24:54.949Z,70
2018-04-29T09:25:16.091Z,70.4
2018-04-29T09:25:37.496Z,71.8
2018-04-29T09:25:58.338Z,72
2018-04-29T09:26:19.385Z,72.3
2018-04-29T09:26:40.396Z,72.8
2018-04-29T09:27:01.303Z,73.3
2018-04-29T09:27:23.038Z,73.1
2018-04-29T09:27:44.019Z,72.3
2018-04-29T09:28:04.599Z,72.6
2018-04-29T09:28:26.311Z,72.1
2018-04-29T09:28:47.179Z,70.8
2018-04-29T09:29:09.837Z,70.1
2018-04-29T09:29:30.822Z,70
2018-04-29T09:29:53.475Z,70.2
2018-04-29T09:30:14.027Z,70.6
2018-04-29T09:30:34.606Z,70.9
2018-04-29T09:30:55.167Z,70.8
2018-04-29T09:31:15.581Z,71.2
2018-04-29T09:31:36.027Z,71.7
2018-04-29T09:31:57.347Z,72.6